1857 Hurricane NOT_NAMED (1857249N27286)


IBTrACS version v04r00. Visit IBTrACS website for data access.
Please direct all questions to the IBTrACS Q and A forum

Storm track - Intensity - Wind Radii - Intensity Data - Source Data - All data

Summary Information

Storm ID 1857249N27286
Start Sep 5 12Z
Landfall Sep 13 12Z, Sep 14 03Z
Max Intensity 95 kt (Sep 12 06Z), 961 mb (Sep 12 18Z)
End Sep 18 06Z
ATCF IDs ,AL021857
Track status Best track data.

Storm track plot

Map of storm track

Intensity plots

Map of storm track

Radial wind information

No radial wind information for this storm


Position and Intensity Table

BASIN ISO_TIME_________ NATURE LAT LON WMO WIND WMO PRES USA WIND USA PRES MLC WIND MLC PRES
degrees north degrees east kts mb kts mb kts mb
NA 1857-09-05 12:00:00 TS 26.80 -74.20 30
NA 15:00:00 TS 26.85 -74.21 30
NA 18:00:00 TS 26.90 -74.20 30
NA 21:00:00 TS 26.96 -74.15 30
NA 1857-09-06 00:00:00 TS 27.00 -74.10 30
NA 03:00:00 TS 27.00 -74.10 30
NA 06:00:00 TS 27.00 -74.10 30
NA 09:00:00 TS 27.05 -74.06 32
NA 12:00:00 TS 27.10 -74.00 35
NA 15:00:00 TS 27.10 -73.95 37
NA 18:00:00 TS 26.90 -73.60 40 40 40
NA 21:00:00 TS 26.87 -73.38 40 42
NA 1857-09-07 00:00:00 TS 26.90 -73.20 40 40 45
NA 03:00:00 TS 26.94 -73.05 40 47
NA 06:00:00 TS 27.03 -72.97 40 40 50
NA 09:00:00 TS 27.14 -72.88 45 52
NA 12:00:00 TS 27.27 -72.80 50 50 55
NA 15:00:00 TS 27.40 -72.75 50 57
NA 18:00:00 TS 27.53 -72.73 50 50 60
NA 21:00:00 TS 27.64 -72.77 50 60
NA 1857-09-08 00:00:00 TS 27.73 -72.83 50 50 60
NA 03:00:00 TS 27.84 -72.88 50 65
NA 06:00:00 TS 27.93 -72.93 50 50 70
NA 09:00:00 TS 28.02 -72.99 55 72
NA 12:00:00 TS 28.10 -73.03 60 60 75 984
NA 15:00:00 TS 28.16 -73.03 60 75
NA 18:00:00 TS 28.23 -73.07 60 60 75
NA 21:00:00 TS 28.36 -73.22 60 75
NA 1857-09-09 00:00:00 TS 28.50 -73.43 60 60 75
NA 03:00:00 TS 28.62 -73.64 65 75
NA 06:00:00 TS 28.73 -73.83 70 70 75
NA 09:00:00 TS 28.86 -73.99 70 75
NA 12:00:00 TS 29.00 -74.13 70 70 75
NA 15:00:00 TS 29.14 -74.30 70 75
NA 18:00:00 TS 29.27 -74.47 70 70 75
NA 21:00:00 TS 29.34 -74.61 70 75
NA 1857-09-10 00:00:00 TS 29.43 -74.73 70 70 75
NA 03:00:00 TS 29.63 -74.85 70 75
NA 06:00:00 TS 29.87 -75.00 70 70 75
NA 09:00:00 TS 30.06 -75.21 75 77
NA 12:00:00 TS 30.23 -75.43 80 80 80
NA 15:00:00 TS 30.42 -75.64 80 80
NA 18:00:00 TS 30.60 -75.83 80 80 80
NA 21:00:00 TS 30.74 -76.01 85 80
NA 1857-09-11 00:00:00 TS 30.87 -76.20 90 90 80
NA 03:00:00 TS 31.03 -76.41 90 80
NA 06:00:00 TS 31.20 -76.67 90 90 80
NA 09:00:00 TS 31.33 -76.99 90 80
NA 12:00:00 TS 31.47 -77.30 90 90 80
NA 15:00:00 TS 31.65 -77.50 90 82
NA 18:00:00 TS 31.83 -77.63 90 90 85
NA 21:00:00 TS 31.96 -77.73 90 87
NA 1857-09-12 00:00:00 TS 32.07 -77.80 90 90 90
NA 03:00:00 TS 32.18 -77.89 90 92
NA 06:00:00 TS 32.30 -77.97 90 90 95
NA 09:00:00 TS 32.43 -78.01 90 95
NA 12:00:00 TS 32.60 -78.03 90 90 95
NA 15:00:00 TS 32.84 -78.09 90 95
NA 18:00:00 TS 33.13 -78.10 90 961 90 961 95 961
NA 21:00:00 TS 33.44 -78.04 90 95
NA 1857-09-13 00:00:00 TS 33.77 -77.90 90 90 95
NA 03:00:00 TS 34.10 -77.68 85 95
NA 06:00:00 TS 34.40 -77.43 80 80 95
NA 09:00:00 TS 34.64 -77.22 75 92
NA 12:00:00 TS 34.87 -77.00 70 70 90
NA 15:00:00 TS 35.16 -76.71 65 90
NA 18:00:00 TS 35.47 -76.43 60 60 90
NA 21:00:00 TS 35.73 -76.24 55 87
NA 1857-09-14 00:00:00 TS 35.97 -76.07 50 50 85
NA 03:00:00 TS 36.18 -75.88 50 85
NA 06:00:00 TS 36.37 -75.63 50 50 85
NA 09:00:00 TS 36.51 -75.33 50 85
NA 12:00:00 TS 36.67 -74.87 50 50 85
NA 15:00:00 TS 36.85 -74.16 55 85
NA 18:00:00 TS 37.10 -73.30 60 60 85
NA 21:00:00 TS 37.44 -72.46 60 82
NA 1857-09-15 00:00:00 TS 37.83 -71.57 60 60 80
NA 03:00:00 TS 38.23 -70.62 65 80
NA 06:00:00 TS 38.63 -69.63 70 70 80
NA 09:00:00 TS 39.02 -68.65 75 80
NA 12:00:00 TS 39.43 -67.57 80 80 80
NA 15:00:00 TS 39.88 -66.37 80 80
NA 18:00:00 TS 40.33 -65.00 80 80 80
NA 21:00:00 TS 40.77 -63.38 80 77
NA 1857-09-16 00:00:00 TS 41.20 -61.70 80 80 75
NA 03:00:00 TS 41.65 -60.15 80 75
NA 06:00:00 TS 42.10 -58.70 80 80 75
NA 09:00:00 TS 42.55 -57.36 80 75
NA 12:00:00 TS 43.00 -56.00 80 80 75
NA 15:00:00 TS 43.45 -54.42 80 75
NA 18:00:00 TS 43.90 -52.77 80 80 75
NA 21:00:00 TS 44.33 -51.21 80 72
NA 1857-09-17 00:00:00 TS 44.80 -49.57 80 80 70
NA 03:00:00 TS 45.34 -47.68 75 67
NA 06:00:00 TS 45.90 -45.70 70 70 65
NA 09:00:00 TS 46.43 -43.76 65 62
NA 12:00:00 MX 46.97 -41.86 60 60 60
NA 15:00:00 MX 47.51 -39.94 55 60
NA 18:00:00 ET 48.02 -37.99 50 50 60
NA 21:00:00 ET 48.50 -36.00 45
NA 1857-09-18 00:00:00 ET 49.00 -34.00 40 40
NA 03:00:00 ET 49.51 -32.01 40
NA 06:00:00 ET 50.00 -30.00 40 40

Source Information

Agency Information
USA hurdat2-1851-2019-042820.txt:Line=567:UNNAMED
TOKYO
CMA
HKO
NEWDELHI
REUNION
BOM
NADI
WELLINGTON
DS824
TD9636
TD9635
NEUMANN
MLC

All available IBTrACS Data

SEASON BASIN SUBBASIN ISO_TIME_________ NATURE LAT LON WMO WIND WMO PRES WMO AGENCY DIST2LAND LANDFALL IFLAG USA AGENCY USA ATCF_ID USA LAT USA LON USA RECORD USA STATUS USA WIND USA PRES USA SSHS MLC LAT MLC LON MLC CLASS MLC WIND MLC PRES STORM SPEED STORM DIR
Year degrees north degrees east kts mb km km degrees north degrees east kts mb 1 degrees north degrees east kts mb kts degrees
1857 NA NA 1857-09-05 12:00:00 TS 26.80 -74.20 424 424 _____________O -1 26.80 -74.20 TD 30 1 0
1857 NA NA 15:00:00 TS 26.85 -74.21 424 424 _____________P -1 26.85 -74.21 TD 30 1 0
1857 NA NA 18:00:00 TS 26.90 -74.20 429 429 _____________O -1 26.90 -74.20 TD 30 1 28
1857 NA NA 21:00:00 TS 26.96 -74.15 434 434 _____________P -1 26.96 -74.15 TD 30 1 40
1857 NA NA 1857-09-06 00:00:00 TS 27.00 -74.10 443 443 _____________O -1 27.00 -74.10 TD 30 1 41
1857 NA NA 03:00:00 TS 27.00 -74.10 443 443 _____________P -1 27.00 -74.10 TD 30 0 0
1857 NA NA 06:00:00 TS 27.00 -74.10 443 443 _____________O -1 27.00 -74.10 TD 30 1 43
1857 NA NA 09:00:00 TS 27.05 -74.06 448 448 _____________P -1 27.05 -74.06 TD 32 1 40
1857 NA NA 12:00:00 TS 27.10 -74.00 457 457 _____________O -1 27.10 -74.00 TS 35 1 63
1857 NA NA 15:00:00 TS 27.10 -73.95 466 460 _____________P -1 27.10 -73.95 TS 37 4 119
1857 NA NA 18:00:00 TS 26.90 -73.60 40 hurdat_atl 483 483 O____________O hurdat_atl AL021857 26.50 -73.00 TS 40 0 27.10 -73.90 TS 40 6 114
1857 NA NA 21:00:00 TS 26.87 -73.38 501 501 P____________P AL021857 26.60 -72.90 TS 40 0 27.14 -73.85 TS 42 4 90
1857 NA NA 1857-09-07 00:00:00 TS 26.90 -73.20 40 hurdat_atl 519 519 O____________O hurdat_atl AL021857 26.70 -72.80 TS 40 0 27.20 -73.80 TS 45 3 76
1857 NA NA 03:00:00 TS 26.94 -73.05 538 538 P____________P AL021857 26.79 -72.70 TS 40 0 27.25 -73.75 TS 47 2 57
1857 NA NA 06:00:00 TS 27.03 -72.97 40 hurdat_atl 542 542 O____________O hurdat_atl AL021857 26.90 -72.60 TS 40 0 27.30 -73.70 TS 50 3 38
1857 NA NA 09:00:00 TS 27.14 -72.88 555 555 P____________P AL021857 27.04 -72.49 TS 45 0 27.34 -73.64 TS 52 3 33
1857 NA NA 12:00:00 TS 27.27 -72.80 50 hurdat_atl 573 573 O____________O hurdat_atl AL021857 27.20 -72.40 TS 50 0 27.40 -73.60 TS 55 3 23
1857 NA NA 15:00:00 TS 27.40 -72.75 587 587 P____________P AL021857 27.36 -72.32 TS 50 0 27.49 -73.60 TS 57 3 11
1857 NA NA 18:00:00 TS 27.53 -72.73 50 hurdat_atl 591 588 O____________O hurdat_atl AL021857 27.50 -72.30 TS 50 0 27.60 -73.60 TS 60 2 353
1857 NA NA 21:00:00 TS 27.64 -72.77 588 588 P____________P AL021857 27.61 -72.38 TS 50 0 27.70 -73.56 TS 60 2 335
1857 NA NA 1857-09-08 00:00:00 TS 27.73 -72.83 50 hurdat_atl 593 590 O____________O hurdat_atl AL021857 27.70 -72.50 TS 50 0 27.80 -73.50 TS 60 2 334
1857 NA NA 03:00:00 TS 27.84 -72.88 590 590 P____________P AL021857 27.80 -72.60 TS 50 0 27.91 -73.45 TS 65 2 335
1857 NA NA 06:00:00 TS 27.93 -72.93 50 hurdat_atl 595 593 O____________O hurdat_atl AL021857 27.90 -72.70 TS 50 0 28.00 -73.40 HU 70 2 335
1857 NA NA 09:00:00 TS 28.02 -72.99 593 593 P____________P AL021857 28.00 -72.81 TS 55 0 28.07 -73.35 HU 72 2 331
1857 NA NA 12:00:00 TS 28.10 -73.03 60 hurdat_atl 599 599 O____________O hurdat_atl AL021857 28.10 -72.90 TS 60 0 28.10 -73.30 HU 75 984 1 344
1857 NA NA 15:00:00 TS 28.16 -73.03 605 597 P____________P AL021857 28.18 -72.92 TS 60 0 28.11 -73.25 HU 75 1 347
1857 NA NA 18:00:00 TS 28.23 -73.07 60 hurdat_atl 597 595 O____________O hurdat_atl AL021857 28.30 -73.00 TS 60 0 28.10 -73.20 HU 75 3 320
1857 NA NA 21:00:00 TS 28.36 -73.22 602 593 P____________P AL021857 28.49 -73.26 TS 60 0 28.11 -73.14 HU 75 4 310
1857 NA NA 1857-09-09 00:00:00 TS 28.50 -73.43 60 hurdat_atl 593 585 O____________O hurdat_atl AL021857 28.70 -73.60 TS 60 0 28.10 -73.10 HU 75 4 305
1857 NA NA 03:00:00 TS 28.62 -73.64 585 578 P____________P AL021857 28.90 -73.91 TS 65 1 28.05 -73.10 HU 75 4 304
1857 NA NA 06:00:00 TS 28.73 -73.83 70 hurdat_atl 578 571 O____________O hurdat_atl AL021857 29.10 -74.20 HU 70 1 28.00 -73.10 HU 75 4 309
1857 NA NA 09:00:00 TS 28.86 -73.99 580 573 P____________P AL021857 29.30 -74.45 HU 70 1 27.99 -73.07 HU 75 4 316
1857 NA NA 12:00:00 TS 29.00 -74.13 70 hurdat_atl 581 575 O____________O hurdat_atl AL021857 29.50 -74.70 HU 70 1 28.00 -73.00 HU 75 4 315
1857 NA NA 15:00:00 TS 29.14 -74.30 577 577 P____________P AL021857 29.71 -75.00 HU 70 1 28.01 -72.91 HU 75 4 313
1857 NA NA 18:00:00 TS 29.27 -74.47 70 hurdat_atl 582 576 O____________O hurdat_atl AL021857 29.90 -75.30 HU 70 1 28.00 -72.80 HU 75 3 306
1857 NA NA 21:00:00 TS 29.34 -74.61 576 572 P____________P AL021857 30.06 -75.57 HU 70 1 27.90 -72.68 HU 75 3 305
1857 NA NA 1857-09-10 00:00:00 TS 29.43 -74.73 70 hurdat_atl 572 564 O____________O hurdat_atl AL021857 30.20 -75.80 HU 70 1 27.90 -72.60 HU 75 4 324
1857 NA NA 03:00:00 TS 29.63 -74.85 557 528 P____________P AL021857 30.36 -76.00 HU 70 1 28.19 -72.56 HU 75 5 332
1857 NA NA 06:00:00 TS 29.87 -75.00 70 hurdat_atl 528 508 O____________O hurdat_atl AL021857 30.50 -76.20 HU 70 1 28.60 -72.60 HU 75 5 324
1857 NA NA 09:00:00 TS 30.06 -75.21 499 479 P____________P AL021857 30.60 -76.45 HU 75 1 28.97 -72.72 HU 77 5 314
1857 NA NA 12:00:00 TS 30.23 -75.43 80 hurdat_atl 479 450 O____________O hurdat_atl AL021857 30.70 -76.70 HU 80 1 29.30 -72.90 HU 80 5 315
1857 NA NA 15:00:00 TS 30.42 -75.64 450 422 P____________P AL021857 30.85 -76.91 HU 80 1 29.57 -73.09 HU 80 5 317
1857 NA NA 18:00:00 TS 30.60 -75.83 80 hurdat_atl 422 403 O____________O hurdat_atl AL021857 31.00 -77.10 HU 80 1 29.80 -73.30 HU 80 4 314
1857 NA NA 21:00:00 TS 30.74 -76.01 403 374 P____________P AL021857 31.10 -77.26 HU 85 2 30.01 -73.52 HU 80 4 310
1857 NA NA 1857-09-11 00:00:00 TS 30.87 -76.20 90 hurdat_atl 374 356 O____________O hurdat_atl AL021857 31.20 -77.40 HU 90 2 30.20 -73.80 HU 80 5 311
1857 NA NA 03:00:00 TS 31.03 -76.41 356 323 P____________P AL021857 31.35 -77.55 HU 90 2 30.40 -74.14 HU 80 5 310
1857 NA NA 06:00:00 TS 31.20 -76.67 90 hurdat_atl 323 294 O____________O hurdat_atl AL021857 31.50 -77.70 HU 90 2 30.60 -74.60 HU 80 6 301
1857 NA NA 09:00:00 TS 31.33 -76.99 294 258 P____________P AL021857 31.59 -77.86 HU 90 2 30.81 -75.26 HU 80 6 296
1857 NA NA 12:00:00 TS 31.47 -77.30 90 hurdat_atl 258 236 O____________O hurdat_atl AL021857 31.70 -78.00 HU 90 2 31.00 -75.90 HU 80 5 307
1857 NA NA 15:00:00 TS 31.65 -77.50 229 215 P____________P AL021857 31.90 -78.12 HU 90 2 31.16 -76.26 HU 82 5 322
1857 NA NA 18:00:00 TS 31.83 -77.63 90 hurdat_atl 215 193 O____________O hurdat_atl AL021857 32.10 -78.20 HU 90 2 31.30 -76.50 HU 85 4 328
1857 NA NA 21:00:00 TS 31.96 -77.73 193 179 P____________P AL021857 32.21 -78.21 HU 90 2 31.45 -76.77 HU 87 3 328
1857 NA NA 1857-09-12 00:00:00 TS 32.07 -77.80 90 hurdat_atl 179 164 O____________O hurdat_atl AL021857 32.30 -78.20 HU 90 2 31.60 -77.00 HU 90 3 328
1857 NA NA 03:00:00 TS 32.18 -77.89 164 150 P____________P AL021857 32.39 -78.25 HU 90 2 31.75 -77.17 HU 92 3 328
1857 NA NA 06:00:00 TS 32.30 -77.97 90 hurdat_atl 150 143 O____________O hurdat_atl AL021857 32.50 -78.30 HU 90 2 31.90 -77.30 HU 95 3 338
1857 NA NA 09:00:00 TS 32.43 -78.01 143 130 P____________P AL021857 32.63 -78.31 HU 90 2 32.03 -77.41 HU 95 3 351
1857 NA NA 12:00:00 TS 32.60 -78.03 90 hurdat_atl 130 111 O____________O hurdat_atl AL021857 32.80 -78.30 HU 90 2 32.20 -77.50 HU 95 4 350
1857 NA NA 15:00:00 TS 32.84 -78.09 111 89 P____________P AL021857 33.03 -78.32 HU 90 2 32.47 -77.61 HU 95 5 354
1857 NA NA 18:00:00 TS 33.13 -78.10 90 961 hurdat_atl 89 55 O____________O hurdat_atl AL021857 33.30 -78.30 HU 90 961 2 32.80 -77.70 HU 95 961 6 4
1857 NA NA 21:00:00 TS 33.44 -78.04 55 22 P____________P AL021857 33.59 -78.19 HU 90 2 33.14 -77.74 HU 95 7 15
1857 NA NA 1857-09-13 00:00:00 TS 33.77 -77.90 90 hurdat_atl 14 14 O____________O hurdat_atl AL021857 33.90 -78.00 L HU 90 2 33.50 -77.70 HU 95 7 24
1857 NA NA 03:00:00 TS 34.10 -77.68 14 9 P____________P AL021857 34.22 -77.76 HU 85 2 33.86 -77.54 HU 95 7 31
1857 NA NA 06:00:00 TS 34.40 -77.43 80 hurdat_atl 11 0 O____________O hurdat_atl AL021857 34.50 -77.50 HU 80 1 34.20 -77.30 HU 95 7 35
1857 NA NA 09:00:00 TS 34.64 -77.22 9 0 P____________P AL021857 34.70 -77.31 HU 75 1 34.51 -77.06 HU 92 6 37
1857 NA NA 12:00:00 TS 34.87 -77.00 70 hurdat_atl 0 0 O____________O hurdat_atl AL021857 34.90 -77.10 HU 70 1 34.80 -76.80 HU 90 7 38
1857 NA NA 15:00:00 TS 35.16 -76.71 0 0 P____________P AL021857 35.19 -76.79 HU 65 1 35.11 -76.55 HU 90 8 38
1857 NA NA 18:00:00 TS 35.47 -76.43 60 hurdat_atl 0 0 O____________O hurdat_atl AL021857 35.50 -76.50 TS 60 0 35.40 -76.30 HU 90 7 34
1857 NA NA 21:00:00 TS 35.73 -76.24 0 0 P____________P AL021857 35.77 -76.33 TS 55 0 35.65 -76.05 HU 87 6 31
1857 NA NA 1857-09-14 00:00:00 TS 35.97 -76.07 50 hurdat_atl 11 0 O____________O hurdat_atl AL021857 36.00 -76.20 TS 50 0 35.90 -75.80 HU 85 5 33
1857 NA NA 03:00:00 TS 36.18 -75.88 0 0 P____________P AL021857 36.17 -76.04 TS 50 0 36.20 -75.55 HU 85 5 41
1857 NA NA 06:00:00 TS 36.37 -75.63 50 hurdat_atl 17 17 O____________O hurdat_atl AL021857 36.30 -75.80 TS 50 0 36.50 -75.30 HU 85 6 53
1857 NA NA 09:00:00 TS 36.51 -75.33 45 45 P____________P AL021857 36.40 -75.42 TS 50 0 36.74 -75.15 HU 85 7 64
1857 NA NA 12:00:00 TS 36.67 -74.87 50 hurdat_atl 86 86 O____________O hurdat_atl AL021857 36.50 -74.90 TS 50 0 37.00 -74.80 HU 85 10 70
1857 NA NA 15:00:00 TS 36.85 -74.16 148 148 P____________P AL021857 36.60 -74.26 TS 55 0 37.34 -73.95 HU 85 13 71
1857 NA NA 18:00:00 TS 37.10 -73.30 60 hurdat_atl 206 206 O____________O hurdat_atl AL021857 36.80 -73.50 TS 60 0 37.70 -72.90 HU 85 15 67
1857 NA NA 21:00:00 TS 37.44 -72.46 248 248 P____________P AL021857 37.15 -72.69 TS 60 0 38.01 -71.99 HU 82 16 62
1857 NA NA 1857-09-15 00:00:00 TS 37.83 -71.57 60 hurdat_atl 300 300 O____________O hurdat_atl AL021857 37.60 -71.80 TS 60 0 38.30 -71.10 HU 80 16 61
1857 NA NA 03:00:00 TS 38.23 -70.62 336 326 P____________P AL021857 38.04 -70.84 TS 65 1 38.60 -70.20 HU 80 17 62
1857 NA NA 06:00:00 TS 38.63 -69.63 70 hurdat_atl 335 317 O____________O hurdat_atl AL021857 38.50 -69.80 HU 70 1 38.90 -69.30 HU 80 17 63
1857 NA NA 09:00:00 TS 39.02 -68.65 322 312 P____________P AL021857 38.95 -68.73 HU 75 1 39.17 -68.48 HU 80 18 64
1857 NA NA 12:00:00 TS 39.43 -67.57 80 hurdat_atl 326 322 O____________O hurdat_atl AL021857 39.40 -67.60 HU 80 1 39.50 -67.50 HU 80 19 64
1857 NA NA 15:00:00 TS 39.88 -66.37 362 356 P____________P AL021857 39.85 -66.49 HU 80 1 39.94 -66.13 HU 80 22 65
1857 NA NA 18:00:00 TS 40.33 -65.00 80 hurdat_atl 356 334 O____________O hurdat_atl AL021857 40.30 -65.20 HU 80 1 40.40 -64.60 HU 80 24 69
1857 NA NA 21:00:00 TS 40.77 -63.38 338 338 P____________P AL021857 40.75 -63.48 HU 80 1 40.80 -63.18 HU 77 26 71
1857 NA NA 1857-09-16 00:00:00 TS 41.20 -61.70 80 hurdat_atl 384 384 O____________O hurdat_atl AL021857 41.20 -61.70 HU 80 1 41.20 -61.70 HU 75 26 70
1857 NA NA 03:00:00 TS 41.65 -60.15 401 390 P____________P AL021857 41.65 -60.25 HU 80 1 41.64 -59.96 HU 75 24 68
1857 NA NA 06:00:00 TS 42.10 -58.70 80 hurdat_atl 394 393 O____________O hurdat_atl AL021857 42.10 -58.90 HU 80 1 42.10 -58.30 HU 75 23 66
1857 NA NA 09:00:00 TS 42.55 -57.36 419 414 P____________P AL021857 42.54 -57.46 HU 80 1 42.56 -57.17 HU 75 22 66
1857 NA NA 12:00:00 TS 43.00 -56.00 80 hurdat_atl 422 362 O____________O hurdat_atl AL021857 43.00 -56.00 HU 80 1 43.00 -56.00 HU 75 23 67
1857 NA NA 15:00:00 TS 43.45 -54.42 361 300 P____________P AL021857 43.49 -54.51 HU 80 1 43.37 -54.25 HU 75 25 69
1857 NA NA 18:00:00 TS 43.90 -52.77 80 hurdat_atl 301 287 O____________O hurdat_atl AL021857 44.00 -53.00 HU 80 1 43.70 -52.30 HU 75 25 69
1857 NA NA 21:00:00 TS 44.33 -51.21 299 293 P____________P AL021857 44.49 -51.57 HU 80 1 44.00 -50.49 HU 72 25 69
1857 NA NA 1857-09-17 00:00:00 TS 44.80 -49.57 80 hurdat_atl 342 342 O____________O hurdat_atl AL021857 45.00 -50.00 HU 80 1 44.40 -48.70 HU 70 27 68
1857 NA NA 03:00:00 TS 45.34 -47.68 439 439 P____________P AL021857 45.50 -48.07 HU 75 1 45.01 -46.90 HU 67 29 68
1857 NA NA 06:00:00 TS 45.90 -45.70 70 hurdat_atl 553 553 O____________O hurdat_atl AL021857 46.00 -46.00 HU 70 1 45.70 -45.10 HU 65 29 68
1857 NA NA 09:00:00 TS 46.43 -43.76 675 675 P____________P AL021857 46.50 -44.00 HU 65 1 46.30 -43.29 HU 62 28 68
1857 NA NA 12:00:00 MX 46.97 -41.86 60 hurdat_atl 805 805 O____________O hurdat_atl AL021857 47.00 -42.00 TS 60 0 46.90 -41.50 EX 60 28 68
1857 NA NA 15:00:00 MX 47.51 -39.94 948 948 P____________P AL021857 47.50 -40.00 TS 55 0 47.54 -39.71 EX 60 28 68
1857 NA NA 18:00:00 ET 48.02 -37.99 50 hurdat_atl 1086 1086 O____________O hurdat_atl AL021857 48.00 -38.00 EX 50 -4 48.20 -37.90 EX 60 28 69
1857 NA NA 21:00:00 ET 48.50 -36.00 1232 1232 P_____________ AL021857 48.50 -36.00 EX 45 -4 EX 28 70
1857 NA NA 1857-09-18 00:00:00 ET 49.00 -34.00 40 hurdat_atl 1358 1353 O_____________ hurdat_atl AL021857 49.00 -34.00 EX 40 -4 28 69
1857 NA NA 03:00:00 ET 49.51 -32.01 1367 1363 P_____________ AL021857 49.51 -32.01 EX 40 -4 28 69
1857 NA NA 06:00:00 ET 50.00 -30.00 40 hurdat_atl 1371 O_____________ hurdat_atl AL021857 50.00 -30.00 EX 40 -4 28 69